sensor_id;sensor_type;location;lat;lon;timestamp;temperature;humidity
19044;DHT22;9654;52.302;8.120;2022-09-09T00:02:28;14.50;99.90
19044;DHT22;9654;52.302;8.120;2022-09-09T00:04:59;14.50;99.90
19044;DHT22;9654;52.302;8.120;2022-09-09T00:07:38;14.50;99.90
19044;DHT22;9654;52.302;8.120;2022-09-09T00:10:19;14.60;99.90
19044;DHT22;9654;52.302;8.120;2022-09-09T00:12:55;14.60;99.90
19044;DHT22;9654;52.302;8.120;2022-09-09T00:15:27;14.60;99.90
19044;DHT22;9654;52.302;8.120;2022-09-09T00:17:59;14.60;99.90
19044;DHT22;9654;52.302;8.120;2022-09-09T00:20:32;14.60;99.90
19044;DHT22;9654;52.302;8.120;2022-09-09T00:23:04;14.60;99.90
19044;DHT22;9654;52.302;8.120;2022-09-09T00:25:39;14.60;99.90
19044;DHT22;9654;52.302;8.120;2022-09-09T00:28:14;14.60;99.90
19044;DHT22;9654;52.302;8.120;2022-09-09T00:30:43;14.60;99.90
19044;DHT22;9654;52.302;8.120;2022-09-09T00:33:15;14.60;99.90
19044;DHT22;9654;52.302;8.120;2022-09-09T00:35:45;14.60;99.90
19044;DHT22;9654;52.302;8.120;2022-09-09T00:38:15;14.60;99.90
19044;DHT22;9654;52.302;8.120;2022-09-09T00:40:50;14.70;99.90
19044;DHT22;9654;52.302;8.120;2022-09-09T00:43:27;14.70;99.90
19044;DHT22;9654;52.302;8.120;2022-09-09T00:46:20;14.70;99.90
19044;DHT22;9654;52.302;8.120;2022-09-09T00:48:58;14.70;99.90
19044;DHT22;9654;52.302;8.120;2022-09-09T00:51:34;14.70;99.90
19044;DHT22;9654;52.302;8.120;2022-09-09T00:54:15;14.70;99.90
19044;DHT22;9654;52.302;8.120;2022-09-09T00:57:00;14.70;99.90
19044;DHT22;9654;52.302;8.120;2022-09-09T00:59:35;14.70;99.90
19044;DHT22;9654;52.302;8.120;2022-09-09T01:02:13;14.60;99.90
19044;DHT22;9654;52.302;8.120;2022-09-09T01:04:42;14.60;99.90
19044;DHT22;9654;52.302;8.120;2022-09-09T01:07:13;14.60;99.90
19044;DHT22;9654;52.302;8.120;2022-09-09T01:09:50;14.50;99.90
19044;DHT22;9654;52.302;8.120;2022-09-09T01:12:25;14.50;99.90
19044;DHT22;9654;52.302;8.120;2022-09-09T01:14:57;14.50;99.90
19044;DHT22;9654;52.302;8.120;2022-09-09T01:17:31;14.50;99.90
19044;DHT22;9654;52.302;8.120;2022-09-09T01:20:04;14.50;99.90
19044;DHT22;9654;52.302;8.120;2022-09-09T01:22:40;14.50;99.90
19044;DHT22;9654;52.302;8.120;2022-09-09T01:25:29;14.40;99.90
19044;DHT22;9654;52.302;8.120;2022-09-09T01:28:02;14.50;99.90
19044;DHT22;9654;52.302;8.120;2022-09-09T01:30:31;14.50;99.90
19044;DHT22;9654;52.302;8.120;2022-09-09T01:32:59;14.40;99.90
19044;DHT22;9654;52.302;8.120;2022-09-09T01:35:37;14.50;99.90
19044;DHT22;9654;52.302;8.120;2022-09-09T01:38:06;14.50;99.90
19044;DHT22;9654;52.302;8.120;2022-09-09T01:40:33;14.50;99.90
19044;DHT22;9654;52.302;8.120;2022-09-09T01:43:01;14.50;99.90
19044;DHT22;9654;52.302;8.120;2022-09-09T01:45:29;14.50;99.90
19044;DHT22;9654;52.302;8.120;2022-09-09T01:47:57;14.50;99.90
19044;DHT22;9654;52.302;8.120;2022-09-09T01:50:24;14.50;99.90
19044;DHT22;9654;52.302;8.120;2022-09-09T01:52:55;14.40;99.90
19044;DHT22;9654;52.302;8.120;2022-09-09T01:55:28;14.50;99.90
19044;DHT22;9654;52.302;8.120;2022-09-09T01:58:06;14.40;99.90
19044;DHT22;9654;52.302;8.120;2022-09-09T02:00:41;14.40;99.90
19044;DHT22;9654;52.302;8.120;2022-09-09T02:03:18;14.40;99.90
19044;DHT22;9654;52.302;8.120;2022-09-09T02:05:50;14.50;99.90
19044;DHT22;9654;52.302;8.120;2022-09-09T02:08:20;14.50;99.90
19044;DHT22;9654;52.302;8.120;2022-09-09T02:10:55;14.50;99.90
19044;DHT22;9654;52.302;8.120;2022-09-09T02:13:25;14.60;99.90
19044;DHT22;9654;52.302;8.120;2022-09-09T02:15:55;14.60;99.90
19044;DHT22;9654;52.302;8.120;2022-09-09T02:18:26;14.60;99.90
19044;DHT22;9654;52.302;8.120;2022-09-09T02:20:54;14.60;99.90
19044;DHT22;9654;52.302;8.120;2022-09-09T02:23:21;14.60;99.90
19044;DHT22;9654;52.302;8.120;2022-09-09T02:25:49;14.70;99.90
19044;DHT22;9654;52.302;8.120;2022-09-09T02:28:19;14.70;99.90
19044;DHT22;9654;52.302;8.120;2022-09-09T02:30:51;14.70;99.90
19044;DHT22;9654;52.302;8.120;2022-09-09T02:33:24;14.80;99.90
19044;DHT22;9654;52.302;8.120;2022-09-09T02:35:52;14.80;99.90
19044;DHT22;9654;52.302;8.120;2022-09-09T02:38:24;14.80;99.90
19044;DHT22;9654;52.302;8.120;2022-09-09T02:40:54;14.90;99.90
19044;DHT22;9654;52.302;8.120;2022-09-09T02:43:21;14.90;99.90
19044;DHT22;9654;52.302;8.120;2022-09-09T02:45:56;14.90;99.90
19044;DHT22;9654;52.302;8.120;2022-09-09T02:48:32;14.80;99.90
19044;DHT22;9654;52.302;8.120;2022-09-09T02:51:08;14.80;99.90
19044;DHT22;9654;52.302;8.120;2022-09-09T02:53:41;14.80;99.90
19044;DHT22;9654;52.302;8.120;2022-09-09T02:56:15;14.80;99.90
19044;DHT22;9654;52.302;8.120;2022-09-09T02:58:43;14.80;99.90
19044;DHT22;9654;52.302;8.120;2022-09-09T03:01:13;14.80;99.90
19044;DHT22;9654;52.302;8.120;2022-09-09T03:03:39;14.80;99.90
19044;DHT22;9654;52.302;8.120;2022-09-09T03:06:07;14.80;99.90
19044;DHT22;9654;52.302;8.120;2022-09-09T03:08:34;14.80;99.90
19044;DHT22;9654;52.302;8.120;2022-09-09T03:11:01;14.80;99.90
19044;DHT22;9654;52.302;8.120;2022-09-09T03:13:27;14.80;99.90
19044;DHT22;9654;52.302;8.120;2022-09-09T03:15:54;14.90;99.90
19044;DHT22;9654;52.302;8.120;2022-09-09T03:18:22;14.90;99.90
19044;DHT22;9654;52.302;8.120;2022-09-09T03:20:49;14.90;99.90
19044;DHT22;9654;52.302;8.120;2022-09-09T03:23:16;14.90;99.90
19044;DHT22;9654;52.302;8.120;2022-09-09T03:25:47;14.90;99.90
19044;DHT22;9654;52.302;8.120;2022-09-09T03:28:14;14.90;99.90
19044;DHT22;9654;52.302;8.120;2022-09-09T03:30:41;14.80;99.90
19044;DHT22;9654;52.302;8.120;2022-09-09T03:33:07;14.80;99.90
19044;DHT22;9654;52.302;8.120;2022-09-09T03:35:36;14.80;99.90
19044;DHT22;9654;52.302;8.120;2022-09-09T03:38:02;14.80;99.90
19044;DHT22;9654;52.302;8.120;2022-09-09T03:40:29;14.80;99.90
19044;DHT22;9654;52.302;8.120;2022-09-09T03:42:56;14.80;99.90
19044;DHT22;9654;52.302;8.120;2022-09-09T03:45:23;14.70;99.90
19044;DHT22;9654;52.302;8.120;2022-09-09T03:47:49;14.70;99.90
19044;DHT22;9654;52.302;8.120;2022-09-09T03:50:16;14.60;99.90
19044;DHT22;9654;52.302;8.120;2022-09-09T03:52:45;14.60;99.90
19044;DHT22;9654;52.302;8.120;2022-09-09T03:55:12;14.60;99.90
19044;DHT22;9654;52.302;8.120;2022-09-09T03:57:38;14.50;99.90
19044;DHT22;9654;52.302;8.120;2022-09-09T04:00:08;14.50;99.90
19044;DHT22;9654;52.302;8.120;2022-09-09T04:02:35;14.50;99.90
19044;DHT22;9654;52.302;8.120;2022-09-09T04:05:01;14.50;99.90
19044;DHT22;9654;52.302;8.120;2022-09-09T04:07:28;14.40;99.90
19044;DHT22;9654;52.302;8.120;2022-09-09T04:09:56;14.50;99.90
19044;DHT22;9654;52.302;8.120;2022-09-09T04:12:23;14.50;99.90
19044;DHT22;9654;52.302;8.120;2022-09-09T04:14:50;14.60;99.90
19044;DHT22;9654;52.302;8.120;2022-09-09T04:17:17;14.50;99.90
19044;DHT22;9654;52.302;8.120;2022-09-09T04:19:43;14.50;99.90
19044;DHT22;9654;52.302;8.120;2022-09-09T04:22:10;14.50;99.90
19044;DHT22;9654;52.302;8.120;2022-09-09T04:24:37;14.50;99.90
19044;DHT22;9654;52.302;8.120;2022-09-09T04:29:42;14.50;99.90
19044;DHT22;9654;52.302;8.120;2022-09-09T04:32:09;14.50;99.90
19044;DHT22;9654;52.302;8.120;2022-09-09T04:34:37;14.50;99.90
19044;DHT22;9654;52.302;8.120;2022-09-09T04:37:03;14.50;99.90
19044;DHT22;9654;52.302;8.120;2022-09-09T04:39:30;14.50;99.90
19044;DHT22;9654;52.302;8.120;2022-09-09T04:41:57;14.50;99.90
19044;DHT22;9654;52.302;8.120;2022-09-09T04:44:24;14.50;99.90
19044;DHT22;9654;52.302;8.120;2022-09-09T04:46:52;14.50;99.90
19044;DHT22;9654;52.302;8.120;2022-09-09T04:49:19;14.50;99.90
19044;DHT22;9654;52.302;8.120;2022-09-09T04:51:45;14.50;99.90
19044;DHT22;9654;52.302;8.120;2022-09-09T04:54:12;14.50;99.90
19044;DHT22;9654;52.302;8.120;2022-09-09T04:56:39;14.50;99.90
19044;DHT22;9654;52.302;8.120;2022-09-09T04:59:06;14.50;99.90
19044;DHT22;9654;52.302;8.120;2022-09-09T05:01:33;14.50;99.90
19044;DHT22;9654;52.302;8.120;2022-09-09T05:04:02;14.50;99.90
19044;DHT22;9654;52.302;8.120;2022-09-09T05:06:29;14.50;99.90
19044;DHT22;9654;52.302;8.120;2022-09-09T05:08:57;14.60;99.90
19044;DHT22;9654;52.302;8.120;2022-09-09T05:11:26;14.60;99.90
19044;DHT22;9654;52.302;8.120;2022-09-09T05:13:53;14.60;99.90
19044;DHT22;9654;52.302;8.120;2022-09-09T05:16:20;14.60;99.90
19044;DHT22;9654;52.302;8.120;2022-09-09T05:18:48;14.60;99.90
19044;DHT22;9654;52.302;8.120;2022-09-09T05:21:18;14.60;99.90
19044;DHT22;9654;52.302;8.120;2022-09-09T05:23:46;14.70;99.90
19044;DHT22;9654;52.302;8.120;2022-09-09T05:26:15;14.70;99.90
19044;DHT22;9654;52.302;8.120;2022-09-09T05:28:41;14.70;99.90
19044;DHT22;9654;52.302;8.120;2022-09-09T05:31:10;14.70;99.90
19044;DHT22;9654;52.302;8.120;2022-09-09T05:33:38;14.70;99.90
19044;DHT22;9654;52.302;8.120;2022-09-09T05:36:07;14.80;99.90
19044;DHT22;9654;52.302;8.120;2022-09-09T05:38:37;14.80;99.90
19044;DHT22;9654;52.302;8.120;2022-09-09T05:41:05;14.80;99.90
19044;DHT22;9654;52.302;8.120;2022-09-09T05:43:32;14.80;99.90
19044;DHT22;9654;52.302;8.120;2022-09-09T05:46:02;14.80;99.90
19044;DHT22;9654;52.302;8.120;2022-09-09T05:48:30;14.90;99.90
19044;DHT22;9654;52.302;8.120;2022-09-09T05:50:57;14.90;99.90
19044;DHT22;9654;52.302;8.120;2022-09-09T05:53:24;15.00;99.90
19044;DHT22;9654;52.302;8.120;2022-09-09T05:56:00;15.00;99.90
19044;DHT22;9654;52.302;8.120;2022-09-09T05:58:29;15.00;99.90
19044;DHT22;9654;52.302;8.120;2022-09-09T06:01:01;15.10;99.90
19044;DHT22;9654;52.302;8.120;2022-09-09T06:03:28;15.10;99.90
19044;DHT22;9654;52.302;8.120;2022-09-09T06:05:59;15.10;99.90
19044;DHT22;9654;52.302;8.120;2022-09-09T06:08:26;15.10;99.90
19044;DHT22;9654;52.302;8.120;2022-09-09T06:10:52;15.20;99.90
19044;DHT22;9654;52.302;8.120;2022-09-09T06:13:20;15.30;99.90
19044;DHT22;9654;52.302;8.120;2022-09-09T06:15:50;15.30;99.90
19044;DHT22;9654;52.302;8.120;2022-09-09T06:18:18;15.50;99.90
19044;DHT22;9654;52.302;8.120;2022-09-09T06:20:54;15.70;99.90
19044;DHT22;9654;52.302;8.120;2022-09-09T06:23:21;15.80;99.90
19044;DHT22;9654;52.302;8.120;2022-09-09T06:25:48;16.00;99.90
19044;DHT22;9654;52.302;8.120;2022-09-09T06:28:14;16.10;99.90
19044;DHT22;9654;52.302;8.120;2022-09-09T06:30:43;16.20;99.90
19044;DHT22;9654;52.302;8.120;2022-09-09T06:33:10;16.20;99.90
19044;DHT22;9654;52.302;8.120;2022-09-09T06:35:36;16.30;99.90
19044;DHT22;9654;52.302;8.120;2022-09-09T06:38:03;16.30;99.90
19044;DHT22;9654;52.302;8.120;2022-09-09T06:40:31;16.40;99.90
19044;DHT22;9654;52.302;8.120;2022-09-09T06:42:59;16.40;99.90
19044;DHT22;9654;52.302;8.120;2022-09-09T06:45:27;16.40;99.90
19044;DHT22;9654;52.302;8.120;2022-09-09T06:47:56;16.50;99.90
19044;DHT22;9654;52.302;8.120;2022-09-09T06:50:23;16.50;99.90
19044;DHT22;9654;52.302;8.120;2022-09-09T06:52:49;16.50;99.90
19044;DHT22;9654;52.302;8.120;2022-09-09T06:55:17;16.50;99.90
19044;DHT22;9654;52.302;8.120;2022-09-09T06:57:44;16.50;99.90
19044;DHT22;9654;52.302;8.120;2022-09-09T07:00:12;16.50;99.90
19044;DHT22;9654;52.302;8.120;2022-09-09T07:02:39;16.50;99.90
19044;DHT22;9654;52.302;8.120;2022-09-09T07:05:08;16.40;99.90
19044;DHT22;9654;52.302;8.120;2022-09-09T07:07:35;16.40;99.90
19044;DHT22;9654;52.302;8.120;2022-09-09T07:10:03;16.40;99.90
19044;DHT22;9654;52.302;8.120;2022-09-09T07:12:30;16.40;99.90
19044;DHT22;9654;52.302;8.120;2022-09-09T07:14:57;16.40;99.90
19044;DHT22;9654;52.302;8.120;2022-09-09T07:17:24;16.30;99.90
19044;DHT22;9654;52.302;8.120;2022-09-09T07:19:51;16.30;99.90
19044;DHT22;9654;52.302;8.120;2022-09-09T07:22:19;16.30;99.90
19044;DHT22;9654;52.302;8.120;2022-09-09T07:24:46;16.40;99.90
19044;DHT22;9654;52.302;8.120;2022-09-09T07:27:15;16.40;99.90
19044;DHT22;9654;52.302;8.120;2022-09-09T07:29:41;16.40;99.90
19044;DHT22;9654;52.302;8.120;2022-09-09T07:32:08;16.50;99.90
19044;DHT22;9654;52.302;8.120;2022-09-09T07:34:35;16.50;99.90
19044;DHT22;9654;52.302;8.120;2022-09-09T07:37:02;16.50;99.90
19044;DHT22;9654;52.302;8.120;2022-09-09T07:39:30;16.50;99.90
19044;DHT22;9654;52.302;8.120;2022-09-09T07:41:57;16.50;99.90
19044;DHT22;9654;52.302;8.120;2022-09-09T07:44:24;16.60;99.90
19044;DHT22;9654;52.302;8.120;2022-09-09T07:46:52;16.60;99.90
19044;DHT22;9654;52.302;8.120;2022-09-09T07:49:19;16.70;99.90
19044;DHT22;9654;52.302;8.120;2022-09-09T07:51:47;16.70;99.90
19044;DHT22;9654;52.302;8.120;2022-09-09T07:54:16;16.80;99.90
19044;DHT22;9654;52.302;8.120;2022-09-09T07:56:47;16.80;99.90
19044;DHT22;9654;52.302;8.120;2022-09-09T07:59:15;16.90;99.90
19044;DHT22;9654;52.302;8.120;2022-09-09T08:01:43;16.90;99.90
19044;DHT22;9654;52.302;8.120;2022-09-09T08:04:13;17.00;99.90
19044;DHT22;9654;52.302;8.120;2022-09-09T08:06:43;17.00;99.90
19044;DHT22;9654;52.302;8.120;2022-09-09T08:09:12;17.10;99.90
19044;DHT22;9654;52.302;8.120;2022-09-09T08:11:40;17.20;99.90
19044;DHT22;9654;52.302;8.120;2022-09-09T08:14:09;17.30;99.90
19044;DHT22;9654;52.302;8.120;2022-09-09T08:16:38;17.40;99.90
19044;DHT22;9654;52.302;8.120;2022-09-09T08:19:06;17.50;99.90
19044;DHT22;9654;52.302;8.120;2022-09-09T08:21:34;17.60;99.90
19044;DHT22;9654;52.302;8.120;2022-09-09T08:24:03;17.60;99.90
19044;DHT22;9654;52.302;8.120;2022-09-09T08:26:32;17.60;99.90
19044;DHT22;9654;52.302;8.120;2022-09-09T08:29:01;17.80;99.90
19044;DHT22;9654;52.302;8.120;2022-09-09T08:31:31;18.00;99.90
19044;DHT22;9654;52.302;8.120;2022-09-09T08:33:58;18.10;99.90
19044;DHT22;9654;52.302;8.120;2022-09-09T08:36:27;18.10;99.90
19044;DHT22;9654;52.302;8.120;2022-09-09T08:38:55;18.20;99.90
19044;DHT22;9654;52.302;8.120;2022-09-09T08:41:37;18.20;99.90
19044;DHT22;9654;52.302;8.120;2022-09-09T08:44:07;18.20;99.90
19044;DHT22;9654;52.302;8.120;2022-09-09T08:46:44;18.40;99.90
19044;DHT22;9654;52.302;8.120;2022-09-09T08:49:33;18.50;99.90
19044;DHT22;9654;52.302;8.120;2022-09-09T08:52:09;18.60;99.90
19044;DHT22;9654;52.302;8.120;2022-09-09T08:54:39;18.60;99.90
19044;DHT22;9654;52.302;8.120;2022-09-09T08:57:11;18.70;99.90
19044;DHT22;9654;52.302;8.120;2022-09-09T08:59:40;18.50;99.90
19044;DHT22;9654;52.302;8.120;2022-09-09T09:02:16;18.60;99.90
19044;DHT22;9654;52.302;8.120;2022-09-09T09:04:54;18.60;99.90
19044;DHT22;9654;52.302;8.120;2022-09-09T09:07:30;18.70;99.90
19044;DHT22;9654;52.302;8.120;2022-09-09T09:10:03;18.70;99.90
19044;DHT22;9654;52.302;8.120;2022-09-09T09:12:37;18.80;99.90
19044;DHT22;9654;52.302;8.120;2022-09-09T09:15:11;18.90;99.90
19044;DHT22;9654;52.302;8.120;2022-09-09T09:17:43;18.90;99.90
19044;DHT22;9654;52.302;8.120;2022-09-09T09:20:12;18.90;99.90
19044;DHT22;9654;52.302;8.120;2022-09-09T09:22:47;18.90;99.90
19044;DHT22;9654;52.302;8.120;2022-09-09T09:25:17;18.90;99.90
19044;DHT22;9654;52.302;8.120;2022-09-09T09:27:49;19.00;99.90
19044;DHT22;9654;52.302;8.120;2022-09-09T09:30:20;19.00;99.90
19044;DHT22;9654;52.302;8.120;2022-09-09T09:32:53;19.10;99.90
19044;DHT22;9654;52.302;8.120;2022-09-09T09:35:20;19.20;99.90
19044;DHT22;9654;52.302;8.120;2022-09-09T09:37:47;19.50;99.90
19044;DHT22;9654;52.302;8.120;2022-09-09T09:40:16;20.00;99.90
19044;DHT22;9654;52.302;8.120;2022-09-09T09:42:51;20.30;99.90
19044;DHT22;9654;52.302;8.120;2022-09-09T09:45:26;20.50;99.90
19044;DHT22;9654;52.302;8.120;2022-09-09T09:48:00;20.50;99.90
19044;DHT22;9654;52.302;8.120;2022-09-09T09:50:27;20.50;99.90
19044;DHT22;9654;52.302;8.120;2022-09-09T09:52:56;20.90;99.90
19044;DHT22;9654;52.302;8.120;2022-09-09T09:55:24;21.10;99.90
19044;DHT22;9654;52.302;8.120;2022-09-09T09:57:53;21.20;99.90
19044;DHT22;9654;52.302;8.120;2022-09-09T10:00:21;21.10;99.90
19044;DHT22;9654;52.302;8.120;2022-09-09T10:02:49;21.00;99.90
19044;DHT22;9654;52.302;8.120;2022-09-09T10:05:20;21.00;99.90
19044;DHT22;9654;52.302;8.120;2022-09-09T10:08:03;21.00;99.90
19044;DHT22;9654;52.302;8.120;2022-09-09T10:10:42;20.80;99.90
19044;DHT22;9654;52.302;8.120;2022-09-09T10:13:15;20.50;99.90
19044;DHT22;9654;52.302;8.120;2022-09-09T10:15:50;20.40;99.90
19044;DHT22;9654;52.302;8.120;2022-09-09T10:18:36;20.30;99.90
19044;DHT22;9654;52.302;8.120;2022-09-09T10:21:15;20.30;99.90
19044;DHT22;9654;52.302;8.120;2022-09-09T10:23:56;20.30;99.90
19044;DHT22;9654;52.302;8.120;2022-09-09T10:26:35;20.30;99.90
19044;DHT22;9654;52.302;8.120;2022-09-09T10:29:22;20.50;99.90
19044;DHT22;9654;52.302;8.120;2022-09-09T10:32:02;20.50;99.90
19044;DHT22;9654;52.302;8.120;2022-09-09T10:34:51;20.80;99.90
19044;DHT22;9654;52.302;8.120;2022-09-09T10:37:31;21.20;99.90
19044;DHT22;9654;52.302;8.120;2022-09-09T10:40:12;21.50;99.90
19044;DHT22;9654;52.302;8.120;2022-09-09T10:42:41;21.40;99.90
19044;DHT22;9654;52.302;8.120;2022-09-09T10:45:17;21.10;99.90
19044;DHT22;9654;52.302;8.120;2022-09-09T10:48:06;21.20;99.90
19044;DHT22;9654;52.302;8.120;2022-09-09T10:50:49;21.30;99.90
19044;DHT22;9654;52.302;8.120;2022-09-09T10:53:26;21.20;99.90
19044;DHT22;9654;52.302;8.120;2022-09-09T10:55:59;21.10;99.90
19044;DHT22;9654;52.302;8.120;2022-09-09T10:58:31;21.10;99.90
19044;DHT22;9654;52.302;8.120;2022-09-09T11:01:09;21.30;99.90
19044;DHT22;9654;52.302;8.120;2022-09-09T11:03:39;21.50;99.90
19044;DHT22;9654;52.302;8.120;2022-09-09T11:06:12;21.80;99.90
19044;DHT22;9654;52.302;8.120;2022-09-09T11:08:42;21.80;99.90
19044;DHT22;9654;52.302;8.120;2022-09-09T11:11:12;21.70;99.90
19044;DHT22;9654;52.302;8.120;2022-09-09T11:13:44;21.50;99.90
19044;DHT22;9654;52.302;8.120;2022-09-09T11:16:20;21.20;99.90
19044;DHT22;9654;52.302;8.120;2022-09-09T11:18:49;20.90;99.90
19044;DHT22;9654;52.302;8.120;2022-09-09T11:21:20;20.70;99.90
19044;DHT22;9654;52.302;8.120;2022-09-09T11:23:53;20.50;99.90
19044;DHT22;9654;52.302;8.120;2022-09-09T11:26:28;20.30;99.90
19044;DHT22;9654;52.302;8.120;2022-09-09T11:29:05;20.20;99.90
19044;DHT22;9654;52.302;8.120;2022-09-09T11:31:44;20.30;99.90
19044;DHT22;9654;52.302;8.120;2022-09-09T11:34:27;20.20;99.90
19044;DHT22;9654;52.302;8.120;2022-09-09T11:37:38;20.50;99.90
19044;DHT22;9654;52.302;8.120;2022-09-09T11:40:18;21.00;99.90
19044;DHT22;9654;52.302;8.120;2022-09-09T11:42:46;21.50;99.90
19044;DHT22;9654;52.302;8.120;2022-09-09T11:45:23;21.90;99.90
19044;DHT22;9654;52.302;8.120;2022-09-09T11:47:55;22.10;99.90
19044;DHT22;9654;52.302;8.120;2022-09-09T11:50:31;22.50;99.90
19044;DHT22;9654;52.302;8.120;2022-09-09T11:53:22;22.60;99.90
19044;DHT22;9654;52.302;8.120;2022-09-09T11:56:05;22.50;99.90
19044;DHT22;9654;52.302;8.120;2022-09-09T11:58:37;22.20;99.90
19044;DHT22;9654;52.302;8.120;2022-09-09T12:01:33;21.80;99.90
19044;DHT22;9654;52.302;8.120;2022-09-09T12:04:16;21.40;99.90
19044;DHT22;9654;52.302;8.120;2022-09-09T12:06:46;21.20;99.90
19044;DHT22;9654;52.302;8.120;2022-09-09T12:09:21;21.00;99.90
19044;DHT22;9654;52.302;8.120;2022-09-09T12:11:51;20.70;99.90
19044;DHT22;9654;52.302;8.120;2022-09-09T12:14:21;20.50;99.90
19044;DHT22;9654;52.302;8.120;2022-09-09T12:16:48;20.10;99.90
19044;DHT22;9654;52.302;8.120;2022-09-09T12:19:16;19.80;99.90
19044;DHT22;9654;52.302;8.120;2022-09-09T12:21:51;19.60;99.90
19044;DHT22;9654;52.302;8.120;2022-09-09T12:24:26;19.60;99.90
19044;DHT22;9654;52.302;8.120;2022-09-09T12:27:00;19.60;99.90
19044;DHT22;9654;52.302;8.120;2022-09-09T12:29:36;19.70;99.90
19044;DHT22;9654;52.302;8.120;2022-09-09T12:32:09;19.80;99.90
19044;DHT22;9654;52.302;8.120;2022-09-09T12:34:39;20.00;99.90
19044;DHT22;9654;52.302;8.120;2022-09-09T12:37:14;20.20;99.90
19044;DHT22;9654;52.302;8.120;2022-09-09T12:39:45;20.40;99.90
19044;DHT22;9654;52.302;8.120;2022-09-09T12:42:19;20.60;99.90
19044;DHT22;9654;52.302;8.120;2022-09-09T12:44:54;20.70;99.90
19044;DHT22;9654;52.302;8.120;2022-09-09T12:47:25;20.70;99.90
19044;DHT22;9654;52.302;8.120;2022-09-09T12:49:53;20.80;99.90
19044;DHT22;9654;52.302;8.120;2022-09-09T12:52:25;20.80;99.90
19044;DHT22;9654;52.302;8.120;2022-09-09T12:54:55;20.80;99.90
19044;DHT22;9654;52.302;8.120;2022-09-09T12:57:25;21.10;99.90
19044;DHT22;9654;52.302;8.120;2022-09-09T13:00:07;21.30;99.90
19044;DHT22;9654;52.302;8.120;2022-09-09T13:02:45;21.60;99.90
19044;DHT22;9654;52.302;8.120;2022-09-09T13:05:15;21.80;99.90
19044;DHT22;9654;52.302;8.120;2022-09-09T13:07:43;22.20;99.90
19044;DHT22;9654;52.302;8.120;2022-09-09T13:10:11;22.40;99.90
19044;DHT22;9654;52.302;8.120;2022-09-09T13:12:40;22.80;99.90
19044;DHT22;9654;52.302;8.120;2022-09-09T13:15:19;23.00;99.90
19044;DHT22;9654;52.302;8.120;2022-09-09T13:17:51;23.20;99.90
19044;DHT22;9654;52.302;8.120;2022-09-09T13:20:19;23.10;99.90
19044;DHT22;9654;52.302;8.120;2022-09-09T13:22:47;23.20;99.90
19044;DHT22;9654;52.302;8.120;2022-09-09T13:25:20;23.60;99.90
19044;DHT22;9654;52.302;8.120;2022-09-09T13:27:57;23.80;99.90
19044;DHT22;9654;52.302;8.120;2022-09-09T13:30:26;23.80;99.90
19044;DHT22;9654;52.302;8.120;2022-09-09T13:33:20;23.90;99.90
19044;DHT22;9654;52.302;8.120;2022-09-09T13:35:50;23.90;99.90
19044;DHT22;9654;52.302;8.120;2022-09-09T13:38:18;23.80;99.90
19044;DHT22;9654;52.302;8.120;2022-09-09T13:40:56;23.90;99.90
19044;DHT22;9654;52.302;8.120;2022-09-09T13:43:26;23.40;99.90
19044;DHT22;9654;52.302;8.120;2022-09-09T13:45:55;23.10;99.90
19044;DHT22;9654;52.302;8.120;2022-09-09T13:48:24;23.00;99.90
19044;DHT22;9654;52.302;8.120;2022-09-09T13:50:59;22.70;99.90
19044;DHT22;9654;52.302;8.120;2022-09-09T13:53:27;22.70;99.90
19044;DHT22;9654;52.302;8.120;2022-09-09T13:55:54;22.80;99.90
19044;DHT22;9654;52.302;8.120;2022-09-09T13:58:22;22.90;99.90
19044;DHT22;9654;52.302;8.120;2022-09-09T14:00:52;23.00;99.90
19044;DHT22;9654;52.302;8.120;2022-09-09T14:03:19;22.90;99.90
19044;DHT22;9654;52.302;8.120;2022-09-09T14:05:46;22.70;99.90
19044;DHT22;9654;52.302;8.120;2022-09-09T14:08:23;22.80;99.90
19044;DHT22;9654;52.302;8.120;2022-09-09T14:10:51;22.90;99.90
19044;DHT22;9654;52.302;8.120;2022-09-09T14:13:18;23.40;99.90
19044;DHT22;9654;52.302;8.120;2022-09-09T14:15:48;23.80;99.90
19044;DHT22;9654;52.302;8.120;2022-09-09T14:18:16;23.70;99.90
19044;DHT22;9654;52.302;8.120;2022-09-09T14:20:44;23.10;99.90
19044;DHT22;9654;52.302;8.120;2022-09-09T14:23:12;22.70;99.90
19044;DHT22;9654;52.302;8.120;2022-09-09T14:25:41;22.50;99.90
19044;DHT22;9654;52.302;8.120;2022-09-09T14:28:10;22.30;99.90
19044;DHT22;9654;52.302;8.120;2022-09-09T14:30:38;22.30;99.90
19044;DHT22;9654;52.302;8.120;2022-09-09T14:33:05;22.30;99.90
19044;DHT22;9654;52.302;8.120;2022-09-09T14:35:33;22.20;99.90
19044;DHT22;9654;52.302;8.120;2022-09-09T14:38:00;22.10;99.90
19044;DHT22;9654;52.302;8.120;2022-09-09T14:40:27;22.00;99.90
19044;DHT22;9654;52.302;8.120;2022-09-09T14:42:54;21.80;99.90
19044;DHT22;9654;52.302;8.120;2022-09-09T14:45:22;21.30;99.90
19044;DHT22;9654;52.302;8.120;2022-09-09T14:47:50;20.60;99.90
19044;DHT22;9654;52.302;8.120;2022-09-09T14:50:17;20.00;99.90
19044;DHT22;9654;52.302;8.120;2022-09-09T14:52:45;19.20;99.90
19044;DHT22;9654;52.302;8.120;2022-09-09T14:55:13;18.60;99.90
19044;DHT22;9654;52.302;8.120;2022-09-09T14:57:40;18.20;99.90
19044;DHT22;9654;52.302;8.120;2022-09-09T15:00:09;18.00;99.90
19044;DHT22;9654;52.302;8.120;2022-09-09T15:02:36;17.80;99.90
19044;DHT22;9654;52.302;8.120;2022-09-09T15:05:04;17.80;99.90
19044;DHT22;9654;52.302;8.120;2022-09-09T15:07:30;17.80;99.90
19044;DHT22;9654;52.302;8.120;2022-09-09T15:09:59;17.90;99.90
19044;DHT22;9654;52.302;8.120;2022-09-09T15:12:25;18.10;99.90
19044;DHT22;9654;52.302;8.120;2022-09-09T15:14:53;18.30;99.90
19044;DHT22;9654;52.302;8.120;2022-09-09T15:17:21;18.50;99.90
19044;DHT22;9654;52.302;8.120;2022-09-09T15:19:50;18.60;99.90
19044;DHT22;9654;52.302;8.120;2022-09-09T15:22:16;18.70;99.90
19044;DHT22;9654;52.302;8.120;2022-09-09T15:24:44;18.80;99.90
19044;DHT22;9654;52.302;8.120;2022-09-09T15:27:12;18.90;99.90
19044;DHT22;9654;52.302;8.120;2022-09-09T15:29:40;19.00;99.90
19044;DHT22;9654;52.302;8.120;2022-09-09T15:32:07;19.00;99.90
19044;DHT22;9654;52.302;8.120;2022-09-09T15:34:34;18.90;99.90
19044;DHT22;9654;52.302;8.120;2022-09-09T15:37:00;18.80;99.90
19044;DHT22;9654;52.302;8.120;2022-09-09T15:39:27;18.70;99.90
19044;DHT22;9654;52.302;8.120;2022-09-09T15:41:54;18.60;99.90
19044;DHT22;9654;52.302;8.120;2022-09-09T15:44:23;18.50;99.90
19044;DHT22;9654;52.302;8.120;2022-09-09T15:46:52;18.30;99.90
19044;DHT22;9654;52.302;8.120;2022-09-09T15:49:20;18.10;99.90
19044;DHT22;9654;52.302;8.120;2022-09-09T15:51:51;17.90;99.90
19044;DHT22;9654;52.302;8.120;2022-09-09T15:54:19;17.80;99.90
19044;DHT22;9654;52.302;8.120;2022-09-09T15:56:51;17.70;99.90
19044;DHT22;9654;52.302;8.120;2022-09-09T15:59:18;17.50;99.90
19044;DHT22;9654;52.302;8.120;2022-09-09T16:01:46;17.40;99.90
19044;DHT22;9654;52.302;8.120;2022-09-09T16:04:14;17.30;99.90
19044;DHT22;9654;52.302;8.120;2022-09-09T16:06:48;17.20;99.90
19044;DHT22;9654;52.302;8.120;2022-09-09T16:09:15;17.20;99.90
19044;DHT22;9654;52.302;8.120;2022-09-09T16:11:42;17.20;99.90